Terminal Aerodrome Forecast
Issued by NWS

Home | Current Version | Previous Version | Text Only | Print | Product List | Glossary On
Versions: 1 2 3 4 5 6 7 8 9 10 11 12 13 14 15 16 17 18 19 20
000
FTUS45 KFGZ 031120
TAFGCN
TAF
KGCN 031120Z 0312/0412 VRB03KT P6SM FEW080
     FM031930 22006KT P6SM SCT060 BKN080
      TEMPO 0320/0324 VRB15G25KT 5SM TSRA BKN060CB
     FM040600 VRB06KT P6SM SCT080 BKN200=

USA.gov is the U.S. government's official web portal to all federal, state and local government web resources and services.